Time;durP1;ratioP1;P1;durP2;ratioP2;P2;SDS_P1;SDS_P2;PMS_P1;PMS_P2;Temp;Humidity;BMP_temperature;BMP_pressure;BME280_temperature;BME280_humidity;BME280_pressure;Samples;Min_cycle;Max_cycle;Signal;HPM_P1;HPM_P2
2023/07/17 00:01:44;;;;;;;6.57;3.33;;;;;;;19.53;82.44;98322.53;5053796;28;20296;-81
2023/07/17 00:04:10;;;;;;;4.50;3.37;;;;;;;19.46;82.99;98316.13;5053489;28;20679;-81
2023/07/17 00:06:37;;;;;;;4.50;3.40;;;;;;;19.44;83.31;98319.94;5053851;28;20216;-81
2023/07/17 00:09:03;;;;;;;5.37;3.50;;;;;;;19.45;82.91;98306.38;5053471;28;20232;-81
2023/07/17 00:11:30;;;;;;;5.20;3.23;;;;;;;19.42;83.04;98317.41;5053372;28;20204;-81
2023/07/17 00:13:57;;;;;;;4.23;3.13;;;;;;;19.43;83.35;98319.09;5053633;28;20228;-81
2023/07/17 00:16:23;;;;;;;3.73;2.87;;;;;;;19.45;83.62;98325.13;5054175;28;20204;-81
2023/07/17 00:18:51;;;;;;;4.47;3.27;;;;;;;19.50;83.10;98319.31;5053765;28;20236;-81
2023/07/17 00:21:17;;;;;;;6.70;3.17;;;;;;;19.54;82.47;98316.16;5053096;28;20215;-81
2023/07/17 00:23:44;;;;;;;4.90;3.23;;;;;;;19.62;81.16;98318.06;5053590;28;20208;-81
2023/07/17 00:26:11;;;;;;;5.60;2.87;;;;;;;19.64;80.79;98316.88;5053469;28;20219;-81
2023/07/17 00:28:37;;;;;;;4.03;3.13;;;;;;;19.68;80.52;98315.56;5053561;28;20628;-81
2023/07/17 00:31:04;;;;;;;3.97;3.30;;;;;;;19.68;80.37;98318.25;5052852;28;20208;-81
2023/07/17 00:33:30;;;;;;;5.97;3.13;;;;;;;19.68;80.23;98310.22;5053475;28;20224;-81
2023/07/17 00:35:58;;;;;;;4.20;2.87;;;;;;;19.71;79.58;98296.50;5053349;28;20207;-81
2023/07/17 00:38:24;;;;;;;3.17;2.70;;;;;;;19.69;79.85;98300.34;5053345;28;20232;-81
2023/07/17 00:40:51;;;;;;;5.93;3.13;;;;;;;19.64;80.52;98291.91;5052793;28;20208;-81
2023/07/17 00:43:18;;;;;;;4.03;2.90;;;;;;;19.59;81.51;98303.13;5053122;28;20262;-81
2023/07/17 00:45:46;;;;;;;3.40;3.00;;;;;;;19.58;81.97;98317.50;5053016;28;20208;-80
2023/07/17 00:48:14;;;;;;;4.47;2.93;;;;;;;19.63;82.60;98315.19;5052891;28;20208;-80
2023/07/17 00:50:41;;;;;;;4.70;2.60;;;;;;;19.68;81.82;98302.16;5052016;28;20698;-80
2023/07/17 00:53:09;;;;;;;3.20;2.60;;;;;;;19.74;80.29;98301.53;5052716;28;20698;-81
2023/07/17 00:55:38;;;;;;;4.53;3.07;;;;;;;19.82;79.27;98298.06;5053091;28;20215;-81
2023/07/17 00:58:05;;;;;;;3.13;2.60;;;;;;;19.86;78.59;98288.69;5052545;28;20243;-81
2023/07/17 01:00:31;;;;;;;5.07;3.00;;;;;;;19.91;77.75;98286.34;5051416;28;20216;-81
2023/07/17 01:02:59;;;;;;;3.13;2.80;;;;;;;19.93;77.64;98287.88;5052727;28;20208;-81
2023/07/17 01:05:25;;;;;;;4.30;2.70;;;;;;;19.96;77.46;98289.41;5052539;28;20216;-81
2023/07/17 01:07:52;;;;;;;3.37;2.70;;;;;;;19.97;78.00;98297.31;5052739;28;20212;-81
2023/07/17 01:10:20;;;;;;;3.93;2.80;;;;;;;19.97;78.46;98305.34;5051628;28;20271;-81
2023/07/17 01:12:46;;;;;;;7.40;3.20;;;;;;;20.02;77.26;98300.34;5053007;28;20243;-81
2023/07/17 01:15:13;;;;;;;3.17;2.47;;;;;;;20.07;75.68;98290.03;5052594;28;20208;-81
2023/07/17 01:17:39;;;;;;;4.83;3.13;;;;;;;20.06;75.21;98291.00;5052614;28;20702;-81
2023/07/17 01:20:09;;;;;;;3.17;2.30;;;;;;;20.05;76.37;98283.91;5051694;28;20235;-81
2023/07/17 01:22:42;;;;;;;3.87;2.63;;;;;;;20.01;76.62;98295.13;5052567;28;20208;-81
2023/07/17 01:25:10;;;;;;;5.67;2.80;;;;;;;20.00;76.98;98306.88;5052460;28;20208;-81
2023/07/17 01:27:37;;;;;;;4.40;3.00;;;;;;;20.02;76.62;98307.53;5052136;28;20566;-81
2023/07/17 01:30:04;;;;;;;4.50;3.00;;;;;;;20.05;76.83;98324.16;5050805;28;20620;-81
2023/07/17 01:32:31;;;;;;;3.67;2.60;;;;;;;20.06;76.18;98328.56;5052133;28;20648;-81
2023/07/17 01:34:57;;;;;;;5.00;3.17;;;;;;;20.11;76.54;98315.50;5052216;28;20205;-81
2023/07/17 01:37:25;;;;;;;3.53;2.60;;;;;;;20.09;76.86;98320.22;5052255;28;20204;-81
2023/07/17 01:39:51;;;;;;;3.47;2.60;;;;;;;20.10;77.12;98329.06;5051110;28;20224;-81
2023/07/17 01:42:19;;;;;;;4.70;3.20;;;;;;;20.03;77.86;98325.31;5051842;28;20220;-80
2023/07/17 01:44:45;;;;;;;4.70;3.20;;;;;;;19.94;79.56;98331.66;5051849;28;20580;-81
2023/07/17 01:47:12;;;;;;;3.43;2.93;;;;;;;19.94;84.33;98350.44;5052084;28;20208;-80
2023/07/17 01:49:40;;;;;;;5.27;3.37;;;;;;;19.92;89.63;98347.06;5051207;28;20228;-81
2023/07/17 01:52:08;;;;;;;5.07;3.73;;;;;;;19.63;89.98;98349.25;5052029;28;20583;-81
2023/07/17 01:54:35;;;;;;;4.77;3.47;;;;;;;19.31;91.41;98349.81;5051779;28;20302;-81
2023/07/17 01:57:01;;;;;;;4.10;3.20;;;;;;;19.16;93.23;98355.84;5051689;28;20208;-82
2023/07/17 01:59:30;;;;;;;3.30;3.00;;;;;;;19.08;94.62;98355.78;5050825;28;20235;-80
2023/07/17 02:01:56;;;;;;;4.23;2.90;;;;;;;19.02;96.20;98351.88;5051616;28;20212;-80
2023/07/17 02:04:23;;;;;;;6.00;3.20;;;;;;;19.01;96.95;98360.91;5051719;28;20212;-80
2023/07/17 02:06:49;;;;;;;4.07;3.33;;;;;;;18.98;98.67;98355.00;5051573;28;20212;-80
2023/07/17 02:09:16;;;;;;;4.33;3.47;;;;;;;18.95;98.94;98353.47;5050481;28;20232;-80
2023/07/17 02:11:42;;;;;;;5.30;3.20;;;;;;;18.94;99.07;98353.63;5051409;28;20694;-80
2023/07/17 02:14:09;;;;;;;4.63;3.23;;;;;;;18.94;98.45;98356.28;5051200;28;20332;-81
2023/07/17 02:16:36;;;;;;;4.23;2.93;;;;;;;18.95;97.46;98340.09;5051446;28;20223;-80
2023/07/17 02:19:03;;;;;;;7.93;3.40;;;;;;;18.91;96.83;98344.06;5051084;28;20556;-82
2023/07/17 02:21:29;;;;;;;4.53;3.40;;;;;;;18.94;95.90;98346.44;5050780;28;20216;-82
2023/07/17 02:23:58;;;;;;;5.43;3.20;;;;;;;18.88;93.87;98347.06;5051180;28;20211;-81
2023/07/17 02:26:24;;;;;;;3.77;3.10;;;;;;;18.84;94.23;98353.69;5050986;28;20238;-82
2023/07/17 02:28:54;;;;;;;3.43;3.03;;;;;;;18.89;93.15;98345.22;5051330;28;20697;-81
2023/07/17 02:31:21;;;;;;;5.03;3.50;;;;;;;18.85;91.69;98350.03;5050572;28;20226;-81
2023/07/17 02:33:49;;;;;;;5.63;3.13;;;;;;;18.84;91.10;98353.69;5051127;28;20227;-81
2023/07/17 02:36:15;;;;;;;4.23;3.27;;;;;;;18.84;91.88;98352.88;5051348;28;20670;-81
2023/07/17 02:38:42;;;;;;;5.50;3.30;;;;;;;18.86;92.41;98366.94;5051254;28;20250;-79
2023/07/17 02:41:08;;;;;;;3.70;3.03;;;;;;;18.85;92.69;98355.41;5050253;28;20227;-79
2023/07/17 02:43:35;;;;;;;4.30;3.10;;;;;;;18.86;93.05;98367.78;5051023;28;20215;-81
2023/07/17 02:46:01;;;;;;;5.00;3.00;;;;;;;18.82;93.02;98370.91;5051101;28;20208;-80
2023/07/17 02:48:28;;;;;;;5.43;3.10;;;;;;;18.80;93.92;98373.75;5050957;28;20239;-80
2023/07/17 02:50:55;;;;;;;3.90;3.20;;;;;;;18.76;93.57;98367.00;5050451;28;20208;-80
2023/07/17 02:53:22;;;;;;;6.43;3.30;;;;;;;18.67;94.96;98383.13;5050957;28;20232;-81
2023/07/17 02:55:48;;;;;;;4.87;3.13;;;;;;;18.60;95.05;98382.88;5050944;28;20207;-81
2023/07/17 02:58:16;;;;;;;4.30;3.10;;;;;;;18.55;95.54;98385.19;5050644;28;20310;-80
2023/07/17 03:00:43;;;;;;;4.80;3.40;;;;;;;18.47;95.69;98386.91;5050207;28;20674;-80
2023/07/17 03:03:09;;;;;;;4.57;3.60;;;;;;;18.39;96.61;98390.34;5050955;28;20694;-79
2023/07/17 03:05:36;;;;;;;3.67;3.10;;;;;;;18.32;98.12;98405.31;5051218;28;20235;-79
2023/07/17 03:08:04;;;;;;;3.93;3.20;;;;;;;18.25;98.03;98401.50;5050750;28;20208;-79
2023/07/17 03:10:31;;;;;;;4.30;3.47;;;;;;;18.19;97.98;98393.19;5050238;28;20689;-79
2023/07/17 03:12:58;;;;;;;4.87;3.53;;;;;;;18.19;98.82;98399.41;5050873;28;20232;-79
2023/07/17 03:15:24;;;;;;;5.47;3.13;;;;;;;18.24;98.98;98401.63;5051141;28;20209;-79
2023/07/17 03:17:51;;;;;;;5.27;3.13;;;;;;;18.29;98.40;98405.53;5051074;28;20204;-81
2023/07/17 03:20:19;;;;;;;4.27;3.33;;;;;;;18.32;97.55;98397.28;5050791;28;20232;-80
2023/07/17 03:22:45;;;;;;;4.03;3.13;;;;;;;18.38;97.58;98403.84;5050983;28;20211;-80
2023/07/17 03:25:13;;;;;;;4.20;3.20;;;;;;;18.39;98.14;98408.22;5051128;28;20212;-81
2023/07/17 03:27:40;;;;;;;5.73;3.60;;;;;;;18.36;98.24;98406.66;5050956;28;20222;-79
2023/07/17 03:30:08;;;;;;;4.50;3.63;;;;;;;18.36;99.60;98406.66;5077536;22;20293;-80
2023/07/17 03:32:34;;;;;;;3.80;3.23;;;;;;;18.30;99.01;98406.41;5071105;28;20238;-80
2023/07/17 03:35:01;;;;;;;4.63;3.70;;;;;;;18.23;99.07;98406.13;5074076;28;20223;-80
2023/07/17 03:37:27;;;;;;;4.57;3.40;;;;;;;18.16;99.74;98414.91;5074432;28;20204;-79
2023/07/17 03:39:54;;;;;;;4.67;3.70;;;;;;;18.23;99.55;98416.84;5073557;28;20235;-78
2023/07/17 03:42:22;;;;;;;5.73;3.70;;;;;;;18.28;99.15;98403.03;5074188;28;20215;-79
2023/07/17 03:44:48;;;;;;;3.47;2.90;;;;;;;18.32;98.79;98405.31;5074057;28;20200;-78
2023/07/17 03:47:16;;;;;;;3.67;3.30;;;;;;;18.32;99.28;98402.63;5073850;28;20215;-79
2023/07/17 03:49:42;;;;;;;4.97;3.50;;;;;;;18.36;99.48;98406.66;5073054;28;20306;-79
2023/07/17 03:52:09;;;;;;;5.00;3.37;;;;;;;18.41;98.81;98412.44;5074038;28;20215;-79
2023/07/17 03:54:35;;;;;;;4.67;3.40;;;;;;;18.39;100.00;98416.25;5073931;28;20227;-79
2023/07/17 03:57:02;;;;;;;4.70;3.30;;;;;;;18.36;100.00;98411.19;5073659;28;20211;-79
2023/07/17 03:59:47;;;;;;;4.27;3.30;;;;;;;18.26;100.00;98418.38;5072993;28;20254;-79
2023/07/17 04:02:14;;;;;;;5.43;3.80;;;;;;;18.16;100.00;98410.38;5073627;28;20689;-79
2023/07/17 04:04:40;;;;;;;4.30;3.20;;;;;;;18.06;100.00;98414.09;5073593;28;20211;-79
2023/07/17 04:07:06;;;;;;;4.40;3.17;;;;;;;18.00;100.00;98423.56;5073752;28;20615;-79
2023/07/17 04:09:33;;;;;;;4.80;3.70;;;;;;;17.91;100.00;98419.06;5072632;28;20735;-80
2023/07/17 04:11:59;;;;;;;4.83;3.57;;;;;;;17.88;100.00;98421.19;5073479;28;20218;-80
2023/07/17 04:14:26;;;;;;;5.17;3.43;;;;;;;17.80;100.00;98421.06;5073240;28;20234;-80
2023/07/17 04:16:54;;;;;;;5.07;3.90;;;;;;;17.83;100.00;98428.78;5073408;28;20203;-79
2023/07/17 04:19:20;;;;;;;4.50;3.73;;;;;;;17.77;100.00;98430.22;5072583;28;21084;-78
2023/07/17 04:21:47;;;;;;;4.63;3.67;;;;;;;17.77;100.00;98435.56;5073475;28;20585;-79
2023/07/17 04:24:13;;;;;;;4.80;3.57;;;;;;;17.78;100.00;98434.56;5073382;28;20219;-80
2023/07/17 04:26:40;;;;;;;4.97;3.80;;;;;;;17.82;100.00;98433.31;5073160;28;20211;-79
2023/07/17 04:29:06;;;;;;;5.47;3.60;;;;;;;17.86;100.00;98440.03;5072675;28;20243;-79
2023/07/17 04:31:33;;;;;;;4.40;3.20;;;;;;;17.89;100.00;98439.75;5073029;28;20669;-80
2023/07/17 04:34:01;;;;;;;6.87;3.73;;;;;;;17.92;100.00;98444.81;5073147;28;20235;-79
2023/07/17 04:36:27;;;;;;;7.00;4.60;;;;;;;17.98;100.00;98441.56;5073016;28;20678;-80
2023/07/17 04:38:54;;;;;;;5.37;3.93;;;;;;;18.08;100.00;98445.06;5073075;28;20846;-79
2023/07/17 04:41:20;;;;;;;6.30;3.63;;;;;;;18.10;100.00;98445.75;5072159;28;20226;-78
2023/07/17 04:43:47;;;;;;;5.10;3.93;;;;;;;18.14;100.00;98449.84;5072234;28;20231;-79
2023/07/17 04:46:14;;;;;;;4.27;3.60;;;;;;;18.14;100.00;98444.47;5072944;28;20208;-81
2023/07/17 04:48:40;;;;;;;5.07;3.87;;;;;;;18.16;100.00;98450.53;5072795;28;20210;-80
2023/07/17 04:51:08;;;;;;;5.67;3.50;;;;;;;18.24;100.00;98455.97;5072201;28;20685;-79
2023/07/17 04:53:35;;;;;;;9.47;3.90;;;;;;;18.34;100.00;98456.84;5072883;28;20231;-79
2023/07/17 04:56:01;;;;;;;6.63;4.40;;;;;;;18.47;100.00;98456.50;5072697;28;20298;-79
2023/07/17 04:58:28;;;;;;;5.03;4.03;;;;;;;18.55;100.00;98460.16;5073023;28;20264;-79
2023/07/17 05:00:59;;;;;;;4.83;4.03;;;;;;;18.67;100.00;98452.75;5072225;28;20591;-79
2023/07/17 05:03:25;;;;;;;5.73;3.90;;;;;;;18.83;100.00;98444.94;5072671;28;20211;-79
2023/07/17 05:05:52;;;;;;;5.73;3.70;;;;;;;18.96;100.00;98443.56;5072570;28;20203;-79
2023/07/17 05:08:20;;;;;;;4.90;3.60;;;;;;;19.04;100.00;98457.06;5072424;28;20214;-79
2023/07/17 05:10:53;;;;;;;4.10;3.67;;;;;;;19.07;100.00;98453.25;5071952;28;20226;-80
2023/07/17 05:13:20;;;;;;;7.17;4.10;;;;;;;19.12;100.00;98453.59;5072588;28;20207;-80
2023/07/17 05:15:46;;;;;;;5.10;3.60;;;;;;;19.18;100.00;98453.00;5072387;28;20670;-80
2023/07/17 05:18:13;;;;;;;5.70;3.90;;;;;;;19.27;100.00;98446.78;5072428;28;20219;-79
2023/07/17 05:20:39;;;;;;;7.43;3.83;;;;;;;19.39;100.00;98450.91;5071549;28;20228;-79
2023/07/17 05:23:06;;;;;;;6.17;3.70;;;;;;;19.55;100.00;98456.41;5072168;28;20211;-80
2023/07/17 05:25:34;;;;;;;6.23;4.10;;;;;;;19.74;100.00;98450.91;5072462;28;20211;-80
2023/07/17 05:28:04;;;;;;;4.77;3.40;;;;;;;19.88;99.16;98453.84;5072037;28;20211;-80
2023/07/17 05:30:33;;;;;;;4.53;3.53;;;;;;;20.11;98.08;98449.69;5071203;28;20269;-79
2023/07/17 05:33:00;;;;;;;5.53;3.57;;;;;;;20.34;96.43;98445.47;5072113;28;20211;-79
2023/07/17 05:35:26;;;;;;;6.50;3.90;;;;;;;20.45;95.51;98442.53;5071863;28;20242;-79
2023/07/17 05:37:54;;;;;;;4.97;3.20;;;;;;;20.66;94.40;98445.63;5071768;28;20701;-79
2023/07/17 05:40:21;;;;;;;4.30;3.40;;;;;;;20.88;92.39;98445.09;5070991;28;20227;-79
2023/07/17 05:42:49;;;;;;;5.47;3.40;;;;;;;20.97;89.90;98444.13;5072336;28;20212;-79
2023/07/17 05:45:15;;;;;;;6.13;3.77;;;;;;;21.01;88.55;98444.63;5071889;28;20246;-78
2023/07/17 05:47:42;;;;;;;4.93;3.40;;;;;;;20.96;88.10;98450.50;5071812;28;20211;-79
2023/07/17 05:50:10;;;;;;;5.03;3.50;;;;;;;20.86;86.87;98440.84;5070858;28;20710;-80
2023/07/17 05:52:37;;;;;;;5.47;3.50;;;;;;;20.83;86.47;98447.41;5071921;28;20235;-80
2023/07/17 05:55:04;;;;;;;4.97;3.60;;;;;;;21.04;84.42;98445.13;5071172;28;20231;-81
2023/07/17 05:57:31;;;;;;;4.67;3.23;;;;;;;21.38;83.18;98440.53;5071589;28;20213;-80
2023/07/17 05:59:59;;;;;;;4.47;3.50;;;;;;;22.15;79.15;98435.50;5070761;28;20231;-82
2023/07/17 06:02:25;;;;;;;6.10;3.60;;;;;;;22.97;74.75;98424.31;5071499;28;20218;-79
2023/07/17 06:04:52;;;;;;;6.17;3.90;;;;;;;23.74;70.23;98413.38;5071521;28;20203;-80
2023/07/17 06:07:18;;;;;;;7.03;3.77;;;;;;;23.94;67.73;98415.41;5071668;28;20219;-77
2023/07/17 06:09:45;;;;;;;5.83;3.50;;;;;;;23.72;68.13;98427.03;5070663;28;20599;-78
2023/07/17 06:12:11;;;;;;;6.20;3.80;;;;;;;23.35;69.14;98435.06;5071467;28;20214;-78
2023/07/17 06:14:38;;;;;;;7.13;4.00;;;;;;;23.05;70.31;98443.97;5071250;28;20227;-78
2023/07/17 06:17:06;;;;;;;6.07;3.90;;;;;;;22.81;71.71;98456.72;5071300;28;20215;-78
2023/07/17 06:19:32;;;;;;;5.80;3.80;;;;;;;22.83;71.15;98452.84;5070380;28;20744;-78
2023/07/17 06:21:59;;;;;;;8.93;4.37;;;;;;;23.23;70.06;98452.66;5071357;28;20211;-80
2023/07/17 06:24:25;;;;;;;8.43;3.80;;;;;;;23.94;67.04;98438.84;5071304;28;20207;-79
2023/07/17 06:26:52;;;;;;;6.53;3.57;;;;;;;24.53;62.95;98422.56;5071164;28;20211;-78
2023/07/17 06:29:19;;;;;;;6.07;4.13;;;;;;;25.13;60.94;98412.38;5070311;28;20239;-78
2023/07/17 06:31:45;;;;;;;7.57;3.93;;;;;;;25.60;58.02;98412.69;5070877;28;20211;-78
2023/07/17 06:34:14;;;;;;;8.57;4.30;;;;;;;26.07;56.33;98406.69;5071026;28;20231;-78
2023/07/17 06:36:41;;;;;;;4.43;3.10;;;;;;;26.39;54.21;98398.78;5071321;28;20668;-81
2023/07/17 06:39:08;;;;;;;5.50;3.55;;;;;;;26.65;53.08;98409.81;5070513;28;20245;-79
2023/07/17 06:41:34;;;;;;;8.20;3.50;;;;;;;26.55;52.33;98412.06;5071114;28;20584;-79
2023/07/17 06:44:03;;;;;;;5.78;3.05;;;;;;;26.75;51.77;98407.59;5070729;28;20214;-79
2023/07/17 06:46:30;;;;;;;4.78;2.85;;;;;;;26.81;50.05;98409.50;5070675;28;20207;-78
2023/07/17 06:48:56;;;;;;;4.78;3.00;;;;;;;27.05;48.97;98425.25;5068727;28;20445;-79
2023/07/17 06:51:24;;;;;;;3.92;3.03;;;;;;;26.74;48.51;98422.19;5067896;28;20207;-79
2023/07/17 06:53:52;;;;;;;3.33;2.88;;;;;;;26.76;49.00;98425.53;5070067;28;20587;-79
2023/07/17 06:56:18;;;;;;;3.00;2.47;;;;;;;27.12;48.85;98425.31;5070737;28;20213;-79
2023/07/17 06:58:45;;;;;;;3.13;2.45;;;;;;;27.06;46.95;98407.94;5070692;28;20604;-80
2023/07/17 07:01:11;;;;;;;4.22;3.00;;;;;;;27.20;47.01;98412.38;5069475;28;20939;-79
2023/07/17 07:03:38;;;;;;;5.05;3.05;;;;;;;26.96;46.46;98410.22;5070877;28;20207;-80
2023/07/17 07:06:05;;;;;;;4.82;3.00;;;;;;;26.62;46.18;98410.22;5071204;28;20280;-81
2023/07/17 07:08:33;;;;;;;5.88;3.00;;;;;;;25.97;47.21;98409.72;5073248;28;20651;-79
2023/07/17 07:11:02;;;;;;;3.60;2.87;;;;;;;25.69;49.42;98418.81;5073576;28;20218;-79
2023/07/17 07:13:29;;;;;;;3.70;2.80;;;;;;;25.32;49.62;98422.63;5074448;28;20755;-80
2023/07/17 07:15:56;;;;;;;7.47;3.23;;;;;;;24.78;49.80;98410.47;5074682;28;20227;-80
2023/07/17 07:18:23;;;;;;;5.20;3.33;;;;;;;24.70;50.52;98429.47;5074729;28;20241;-80
2023/07/17 07:20:51;;;;;;;4.77;3.00;;;;;;;24.53;51.19;98430.69;5074080;28;20211;-80
2023/07/17 07:23:18;;;;;;;6.47;3.50;;;;;;;24.50;51.23;98430.22;5074585;28;20578;-80
2023/07/17 07:25:46;;;;;;;9.57;3.57;;;;;;;24.49;49.36;98415.84;5074496;28;20207;-80
2023/07/17 07:28:14;;;;;;;5.07;3.67;;;;;;;24.48;48.57;98403.38;5074535;28;20212;-80
2023/07/17 07:30:40;;;;;;;4.27;3.60;;;;;;;24.40;49.69;98416.13;5073561;28;20235;-80
2023/07/17 07:33:07;;;;;;;6.40;3.53;;;;;;;24.31;48.90;98404.56;5075221;28;20203;-88
2023/07/17 07:35:33;;;;;;;6.80;3.67;;;;;;;24.38;49.40;98421.72;5074252;28;20231;-83
2023/07/17 07:38:00;;;;;;;5.87;3.50;;;;;;;24.41;48.91;98413.25;5074672;28;20226;-83
2023/07/17 07:40:27;;;;;;;7.60;4.27;;;;;;;24.40;48.71;98411.59;5073711;28;20627;-74
2023/07/17 07:42:54;;;;;;;6.23;3.77;;;;;;;24.39;49.35;98422.56;5073997;28;20678;-75
2023/07/17 07:45:21;;;;;;;4.40;3.43;;;;;;;24.43;48.70;98422.00;5074519;28;20214;-75
2023/07/17 07:47:48;;;;;;;5.80;4.10;;;;;;;24.43;47.39;98413.91;5074294;28;20265;-77
2023/07/17 07:50:14;;;;;;;4.93;3.80;;;;;;;24.54;46.61;98401.78;5073471;28;20235;-75
2023/07/17 07:52:41;;;;;;;5.50;3.97;;;;;;;24.60;47.93;98412.72;5074137;28;20211;-75
2023/07/17 07:55:08;;;;;;;5.80;3.93;;;;;;;24.60;48.43;98428.94;5074021;28;20234;-76
2023/07/17 07:57:34;;;;;;;5.77;3.77;;;;;;;24.69;46.49;98417.00;5074653;28;20211;-75
2023/07/17 08:00:03;;;;;;;7.23;3.90;;;;;;;24.67;46.83;98419.06;5077781;28;20235;-76
2023/07/17 08:02:29;;;;;;;6.77;3.90;;;;;;;24.76;46.96;98422.50;5077267;28;20742;-77
2023/07/17 08:04:56;;;;;;;5.50;3.60;;;;;;;24.82;46.70;98422.56;5076242;28;20210;-76
2023/07/17 08:07:23;;;;;;;5.67;3.97;;;;;;;24.84;44.53;98403.47;5074790;28;20242;-78
2023/07/17 08:09:49;;;;;;;6.37;4.07;;;;;;;24.88;44.65;98405.59;5072821;28;20242;-76
2023/07/17 08:12:16;;;;;;;5.90;3.90;;;;;;;25.05;44.92;98409.75;5073924;28;20302;-74
2023/07/17 08:14:42;;;;;;;5.33;4.10;;;;;;;25.20;43.56;98410.59;5073630;28;20227;-76
2023/07/17 08:17:10;;;;;;;4.35;3.60;;;;;;;25.20;44.11;98410.59;5073370;28;20215;-75
2023/07/17 08:19:37;;;;;;;4.57;3.88;;;;;;;25.25;45.01;98418.16;5072526;28;20224;-75
2023/07/17 08:22:04;;;;;;;6.80;3.90;;;;;;;25.33;44.71;98420.72;5073532;28;20211;-76
2023/07/17 08:24:30;;;;;;;5.03;3.70;;;;;;;25.38;43.44;98402.91;5073365;28;20211;-75
2023/07/17 08:26:57;;;;;;;5.70;3.40;;;;;;;25.44;42.57;98402.13;5073596;28;20207;-75
2023/07/17 08:29:23;;;;;;;3.80;3.33;;;;;;;25.52;42.24;98395.75;5072566;28;20292;-77
2023/07/17 08:31:50;;;;;;;5.18;3.30;;;;;;;25.71;43.54;98423.00;5073048;28;20203;-76
2023/07/17 08:34:18;;;;;;;5.03;3.30;;;;;;;25.79;41.50;98397.69;5073146;28;20278;-76
2023/07/17 08:36:44;;;;;;;4.90;3.40;;;;;;;25.90;41.32;98397.19;5073100;28;20214;-76
2023/07/17 08:39:11;;;;;;;3.93;3.27;;;;;;;26.06;42.77;98414.00;5072367;28;20270;-76
2023/07/17 08:41:39;;;;;;;5.53;3.83;;;;;;;26.22;42.82;98407.44;5073390;28;20204;-75
2023/07/17 08:44:06;;;;;;;4.68;3.10;;;;;;;26.46;42.15;98410.50;5073027;28;20237;-75
2023/07/17 08:46:33;;;;;;;5.03;3.40;;;;;;;26.60;41.15;98406.91;5072909;28;20200;-75
2023/07/17 08:49:01;;;;;;;4.88;3.47;;;;;;;26.72;40.92;98402.56;5072827;28;20235;-75
2023/07/17 08:51:29;;;;;;;6.70;3.63;;;;;;;26.77;41.33;98412.81;5072251;28;20231;-76
2023/07/17 08:53:57;;;;;;;4.85;3.58;;;;;;;26.82;40.12;98405.75;5072805;28;20696;-75
2023/07/17 08:56:24;;;;;;;5.88;3.38;;;;;;;27.03;40.89;98419.22;5072717;28;20272;-77
2023/07/17 08:58:54;;;;;;;4.55;3.45;;;;;;;26.86;40.21;98395.31;5072542;28;20239;-75
2023/07/17 09:01:21;;;;;;;5.13;3.47;;;;;;;27.04;39.44;98401.88;5071994;28;20248;-76
2023/07/17 09:03:49;;;;;;;6.78;3.55;;;;;;;27.02;38.12;98395.84;5072654;28;20203;-76
2023/07/17 09:06:15;;;;;;;5.75;3.38;;;;;;;26.91;38.70;98404.53;5072673;28;20607;-76
2023/07/17 09:08:43;;;;;;;4.30;3.40;;;;;;;26.72;37.95;98383.59;5072534;28;20305;-76
2023/07/17 09:11:10;;;;;;;5.05;3.42;;;;;;;26.73;38.95;98390.69;5071910;28;20214;-76
2023/07/17 09:13:38;;;;;;;4.70;3.80;;;;;;;26.86;39.69;98398.03;5072499;28;20298;-76
2023/07/17 09:16:15;;;;;;;5.50;3.47;;;;;;;27.12;38.29;98398.97;5072315;28;20284;-76
2023/07/17 09:18:42;;;;;;;6.13;3.72;;;;;;;27.09;37.56;98389.38;5072114;28;20654;-76
2023/07/17 09:21:09;;;;;;;3.70;3.40;;;;;;;27.04;38.09;98393.75;5071681;28;20208;-76
2023/07/17 09:23:39;;;;;;;4.70;3.67;;;;;;;26.88;37.91;98393.25;5072076;28;20681;-75
2023/07/17 09:26:07;;;;;;;3.80;3.30;;;;;;;26.88;38.58;98398.69;5072204;28;20400;-76
2023/07/17 09:28:37;;;;;;;8.82;4.45;;;;;;;26.82;37.57;98389.47;5071742;28;20218;-77
2023/07/17 09:31:04;;;;;;;5.82;3.50;;;;;;;26.78;39.08;98393.63;5103034;22;20234;-80
2023/07/17 09:33:36;;;;;;;6.80;4.45;;;;;;;26.95;39.48;98403.09;5092349;28;20202;-80
2023/07/17 09:36:02;;;;;;;4.22;3.70;;;;;;;27.04;37.46;98388.31;5092174;28;20199;-80
2023/07/17 09:38:29;;;;;;;5.47;3.90;;;;;;;26.95;37.21;98378.66;5092297;28;20203;-80
2023/07/17 09:40:55;;;;;;;5.88;4.18;;;;;;;27.01;39.03;98404.16;5091337;28;20299;-80
2023/07/17 09:43:31;;;;;;;4.72;3.65;;;;;;;27.23;37.47;98393.00;5091920;28;20203;-80
2023/07/17 09:46:00;;;;;;;4.60;3.60;;;;;;;27.22;38.43;98396.75;5092120;28;20321;-80
2023/07/17 09:48:27;;;;;;;4.53;3.70;;;;;;;27.31;38.09;98384.66;5091944;28;20259;-80
2023/07/17 09:50:56;;;;;;;6.72;3.80;;;;;;;27.22;39.17;98406.78;5091070;28;20223;-80
2023/07/17 09:53:24;;;;;;;7.70;4.47;;;;;;;27.14;38.28;98399.63;5091948;28;20202;-80
2023/07/17 09:55:52;;;;;;;7.15;4.00;;;;;;;26.96;37.83;98396.66;5091951;28;20206;-80
2023/07/17 09:58:19;;;;;;;5.40;3.72;;;;;;;26.78;38.44;98392.78;5091755;28;20225;-80
2023/07/17 10:00:49;;;;;;;4.35;3.83;;;;;;;26.67;39.24;98399.63;5091255;28;20769;-80
2023/07/17 10:03:17;;;;;;;5.90;4.18;;;;;;;26.62;39.11;98399.38;5091792;28;20214;-80
2023/07/17 10:05:44;;;;;;;6.90;4.47;;;;;;;26.68;38.54;98387.75;5091577;28;20227;-80
2023/07/17 10:08:11;;;;;;;4.97;3.70;;;;;;;26.74;38.28;98397.78;5091675;28;20214;-80
2023/07/17 10:10:38;;;;;;;3.83;3.40;;;;;;;26.73;38.48;98396.13;5090743;28;20238;-79
2023/07/17 10:13:06;;;;;;;5.45;4.00;;;;;;;26.92;40.29;98410.78;5091814;28;20214;-79
2023/07/17 10:15:33;;;;;;;6.97;3.85;;;;;;;27.06;38.84;98397.09;5091606;28;20210;-78
2023/07/17 10:18:01;;;;;;;5.35;3.83;;;;;;;27.15;39.30;98409.44;5091427;28;20684;-79
2023/07/17 10:20:31;;;;;;;4.53;3.63;;;;;;;27.15;38.48;98398.59;5090773;28;20659;-80
2023/07/17 10:22:57;;;;;;;6.43;3.67;;;;;;;27.10;37.78;98390.22;5091499;28;20275;-79
2023/07/17 10:25:26;;;;;;;6.85;4.35;;;;;;;26.89;39.03;98403.88;5091191;28;20238;-79
2023/07/17 10:27:57;;;;;;;6.18;4.38;;;;;;;26.82;38.26;98389.47;5091299;28;20677;-79
2023/07/17 10:30:25;;;;;;;5.05;3.90;;;;;;;26.69;38.82;98396.72;5090403;28;20292;-78
2023/07/17 10:33:06;;;;;;;6.13;4.13;;;;;;;26.75;38.55;98388.59;5091324;28;20210;-84
2023/07/17 10:35:44;;;;;;;4.50;3.70;;;;;;;26.84;39.55;98390.13;5091316;28;20206;-83
2023/07/17 10:38:11;;;;;;;4.90;3.92;;;;;;;26.80;40.05;98396.97;5091395;28;20253;-83
2023/07/17 10:40:38;;;;;;;5.03;3.90;;;;;;;26.80;38.81;98391.56;5090450;28;20317;-82
2023/07/17 10:43:15;;;;;;;5.60;3.50;;;;;;;26.71;39.38;98392.75;5093192;28;20207;-81
2023/07/17 10:45:42;;;;;;;4.88;4.00;;;;;;;26.75;39.99;98398.63;5095231;28;20241;-80
2023/07/17 10:48:11;;;;;;;6.35;4.28;;;;;;;26.69;39.78;98394.84;5095347;28;20206;-83
2023/07/17 10:50:39;;;;;;;4.88;4.20;;;;;;;26.63;40.26;98389.38;5094683;28;20313;-79
2023/07/17 10:53:09;;;;;;;6.60;4.43;;;;;;;26.64;39.45;98381.03;5095582;28;20207;-80
2023/07/17 10:55:36;;;;;;;5.93;4.10;;;;;;;26.52;41.14;98395.34;5095299;28;20203;-80
2023/07/17 10:58:02;;;;;;;5.72;4.20;;;;;;;26.53;41.33;98395.16;5095181;28;20202;-79
2023/07/17 11:00:29;;;;;;;6.68;4.30;;;;;;;26.60;41.97;98398.75;5094225;28;20239;-80
2023/07/17 11:02:56;;;;;;;8.10;4.18;;;;;;;26.58;40.81;98392.69;5095074;28;20206;-80
2023/07/17 11:05:24;;;;;;;6.43;4.45;;;;;;;26.42;40.82;98387.56;5095147;28;20231;-81
2023/07/17 11:07:50;;;;;;;5.07;4.10;;;;;;;26.29;41.70;98392.91;5095219;28;20671;-80
2023/07/17 11:10:16;;;;;;;4.60;3.95;;;;;;;26.26;41.54;98382.44;5094285;28;20238;-80
2023/07/17 11:12:43;;;;;;;7.05;4.40;;;;;;;26.29;42.12;98390.19;5095002;28;20588;-80
2023/07/17 11:15:14;;;;;;;9.75;4.80;;;;;;;26.38;41.96;98386.28;5094702;28;20229;-80
2023/07/17 11:17:41;;;;;;;6.55;4.15;;;;;;;26.39;41.42;98382.53;5095010;28;20211;-80
2023/07/17 11:20:08;;;;;;;6.05;4.20;;;;;;;26.49;40.51;98383.00;5093912;28;20230;-80
2023/07/17 11:22:37;;;;;;;5.38;4.10;;;;;;;26.39;40.43;98382.53;5094888;28;20210;-80
2023/07/17 11:25:05;;;;;;;6.30;4.77;;;;;;;26.32;40.82;98384.34;5094814;28;20202;-80
2023/07/17 11:27:31;;;;;;;5.32;3.97;;;;;;;26.29;41.95;98392.91;5094515;28;20229;-80
2023/07/17 11:29:58;;;;;;;5.13;3.80;;;;;;;26.35;41.22;98386.69;5093799;28;20250;-80
2023/07/17 11:32:28;;;;;;;7.15;3.95;;;;;;;26.49;40.51;98383.00;5094625;28;20214;-80